sensor_id;sensor_type;location;lat;lon;timestamp;P1;durP1;ratioP1;P2;durP2;ratioP2
19595;SDS011;9945;46.010;8.946;2023-05-07T00:00:24;5.65;;;2.53;;
19595;SDS011;9945;46.010;8.946;2023-05-07T00:02:52;5.18;;;3.00;;
19595;SDS011;9945;46.010;8.946;2023-05-07T00:05:19;5.18;;;2.90;;
19595;SDS011;9945;46.010;8.946;2023-05-07T00:07:46;4.05;;;2.55;;
19595;SDS011;9945;46.010;8.946;2023-05-07T00:10:13;3.20;;;2.58;;
19595;SDS011;9945;46.010;8.946;2023-05-07T00:12:40;3.42;;;2.40;;
19595;SDS011;9945;46.010;8.946;2023-05-07T00:15:07;6.32;;;2.90;;
19595;SDS011;9945;46.010;8.946;2023-05-07T00:17:35;5.40;;;2.55;;
19595;SDS011;9945;46.010;8.946;2023-05-07T00:20:03;3.08;;;2.40;;
19595;SDS011;9945;46.010;8.946;2023-05-07T00:22:31;3.15;;;2.50;;
19595;SDS011;9945;46.010;8.946;2023-05-07T00:24:58;3.35;;;2.80;;
19595;SDS011;9945;46.010;8.946;2023-05-07T00:27:25;6.60;;;3.58;;
19595;SDS011;9945;46.010;8.946;2023-05-07T00:29:52;3.95;;;3.20;;
19595;SDS011;9945;46.010;8.946;2023-05-07T00:32:19;3.95;;;2.90;;
19595;SDS011;9945;46.010;8.946;2023-05-07T00:34:45;4.10;;;3.25;;
19595;SDS011;9945;46.010;8.946;2023-05-07T00:37:14;6.10;;;3.28;;
19595;SDS011;9945;46.010;8.946;2023-05-07T00:39:40;5.60;;;3.00;;
19595;SDS011;9945;46.010;8.946;2023-05-07T00:42:07;3.67;;;2.90;;
19595;SDS011;9945;46.010;8.946;2023-05-07T00:44:35;4.20;;;3.13;;
19595;SDS011;9945;46.010;8.946;2023-05-07T00:47:02;4.28;;;3.05;;
19595;SDS011;9945;46.010;8.946;2023-05-07T00:49:32;3.40;;;2.97;;
19595;SDS011;9945;46.010;8.946;2023-05-07T00:52:04;5.00;;;3.17;;
19595;SDS011;9945;46.010;8.946;2023-05-07T00:54:34;5.28;;;3.53;;
19595;SDS011;9945;46.010;8.946;2023-05-07T00:57:01;4.50;;;3.17;;
19595;SDS011;9945;46.010;8.946;2023-05-07T00:59:29;4.47;;;2.75;;
19595;SDS011;9945;46.010;8.946;2023-05-07T01:01:57;3.92;;;2.55;;
19595;SDS011;9945;46.010;8.946;2023-05-07T01:04:25;6.03;;;2.95;;
19595;SDS011;9945;46.010;8.946;2023-05-07T01:06:53;3.25;;;3.03;;
19595;SDS011;9945;46.010;8.946;2023-05-07T01:09:22;7.60;;;3.40;;
19595;SDS011;9945;46.010;8.946;2023-05-07T01:11:51;5.00;;;3.22;;
19595;SDS011;9945;46.010;8.946;2023-05-07T01:14:19;3.17;;;2.85;;
19595;SDS011;9945;46.010;8.946;2023-05-07T01:16:46;3.55;;;3.17;;
19595;SDS011;9945;46.010;8.946;2023-05-07T01:19:13;8.43;;;3.45;;
19595;SDS011;9945;46.010;8.946;2023-05-07T01:21:43;3.50;;;2.60;;
19595;SDS011;9945;46.010;8.946;2023-05-07T01:24:14;4.40;;;3.15;;
19595;SDS011;9945;46.010;8.946;2023-05-07T01:26:41;5.13;;;2.80;;
19595;SDS011;9945;46.010;8.946;2023-05-07T01:29:09;3.30;;;2.72;;
19595;SDS011;9945;46.010;8.946;2023-05-07T01:31:36;3.60;;;2.60;;
19595;SDS011;9945;46.010;8.946;2023-05-07T01:34:03;3.53;;;3.22;;
19595;SDS011;9945;46.010;8.946;2023-05-07T01:36:33;3.50;;;2.70;;
19595;SDS011;9945;46.010;8.946;2023-05-07T01:39:02;4.80;;;2.88;;
19595;SDS011;9945;46.010;8.946;2023-05-07T01:41:32;6.70;;;3.60;;
19595;SDS011;9945;46.010;8.946;2023-05-07T01:43:58;5.47;;;3.30;;
19595;SDS011;9945;46.010;8.946;2023-05-07T01:46:26;7.72;;;3.53;;
19595;SDS011;9945;46.010;8.946;2023-05-07T01:48:53;4.00;;;3.58;;
19595;SDS011;9945;46.010;8.946;2023-05-07T01:51:20;3.20;;;2.95;;
19595;SDS011;9945;46.010;8.946;2023-05-07T01:53:48;3.17;;;2.95;;
19595;SDS011;9945;46.010;8.946;2023-05-07T01:56:16;2.72;;;2.53;;
19595;SDS011;9945;46.010;8.946;2023-05-07T01:58:45;2.88;;;2.47;;
19595;SDS011;9945;46.010;8.946;2023-05-07T02:01:12;10.63;;;2.80;;
19595;SDS011;9945;46.010;8.946;2023-05-07T02:03:40;3.97;;;2.50;;
19595;SDS011;9945;46.010;8.946;2023-05-07T02:06:06;4.25;;;2.40;;
19595;SDS011;9945;46.010;8.946;2023-05-07T02:08:33;3.00;;;2.50;;
19595;SDS011;9945;46.010;8.946;2023-05-07T02:11:00;5.47;;;3.28;;
19595;SDS011;9945;46.010;8.946;2023-05-07T02:13:28;4.63;;;2.50;;
19595;SDS011;9945;46.010;8.946;2023-05-07T02:15:57;4.13;;;2.90;;
19595;SDS011;9945;46.010;8.946;2023-05-07T02:18:24;4.90;;;2.70;;
19595;SDS011;9945;46.010;8.946;2023-05-07T02:20:51;3.33;;;3.03;;
19595;SDS011;9945;46.010;8.946;2023-05-07T02:23:18;4.68;;;3.15;;
19595;SDS011;9945;46.010;8.946;2023-05-07T02:25:45;3.22;;;2.92;;
19595;SDS011;9945;46.010;8.946;2023-05-07T02:28:12;5.20;;;3.25;;
19595;SDS011;9945;46.010;8.946;2023-05-07T02:30:39;5.95;;;3.20;;
19595;SDS011;9945;46.010;8.946;2023-05-07T02:33:07;3.20;;;2.90;;
19595;SDS011;9945;46.010;8.946;2023-05-07T02:35:34;6.85;;;2.92;;
19595;SDS011;9945;46.010;8.946;2023-05-07T02:38:01;4.35;;;2.92;;
19595;SDS011;9945;46.010;8.946;2023-05-07T02:40:28;4.60;;;3.15;;
19595;SDS011;9945;46.010;8.946;2023-05-07T02:42:58;3.40;;;2.90;;
19595;SDS011;9945;46.010;8.946;2023-05-07T02:45:25;2.35;;;2.08;;
19595;SDS011;9945;46.010;8.946;2023-05-07T02:47:52;4.13;;;2.92;;
19595;SDS011;9945;46.010;8.946;2023-05-07T02:50:21;5.40;;;3.05;;
19595;SDS011;9945;46.010;8.946;2023-05-07T02:52:48;4.57;;;2.83;;
19595;SDS011;9945;46.010;8.946;2023-05-07T02:55:15;4.97;;;3.00;;
19595;SDS011;9945;46.010;8.946;2023-05-07T02:57:42;5.75;;;3.30;;
19595;SDS011;9945;46.010;8.946;2023-05-07T03:00:12;4.93;;;3.47;;
19595;SDS011;9945;46.010;8.946;2023-05-07T03:02:41;6.57;;;2.63;;
19595;SDS011;9945;46.010;8.946;2023-05-07T03:05:08;3.20;;;2.65;;
19595;SDS011;9945;46.010;8.946;2023-05-07T03:07:36;2.97;;;2.72;;
19595;SDS011;9945;46.010;8.946;2023-05-07T03:10:03;3.10;;;2.90;;
19595;SDS011;9945;46.010;8.946;2023-05-07T03:12:31;3.17;;;2.88;;
19595;SDS011;9945;46.010;8.946;2023-05-07T03:14:58;2.83;;;2.20;;
19595;SDS011;9945;46.010;8.946;2023-05-07T03:17:25;3.90;;;2.85;;
19595;SDS011;9945;46.010;8.946;2023-05-07T03:19:52;5.03;;;3.30;;
19595;SDS011;9945;46.010;8.946;2023-05-07T03:22:18;3.45;;;2.95;;
19595;SDS011;9945;46.010;8.946;2023-05-07T03:24:47;3.20;;;2.90;;
19595;SDS011;9945;46.010;8.946;2023-05-07T03:27:13;5.95;;;2.97;;
19595;SDS011;9945;46.010;8.946;2023-05-07T03:29:40;3.03;;;2.75;;
19595;SDS011;9945;46.010;8.946;2023-05-07T03:32:07;4.40;;;2.78;;
19595;SDS011;9945;46.010;8.946;2023-05-07T03:34:34;4.80;;;3.03;;
19595;SDS011;9945;46.010;8.946;2023-05-07T03:37:01;3.10;;;2.80;;
19595;SDS011;9945;46.010;8.946;2023-05-07T03:39:28;5.03;;;2.90;;
19595;SDS011;9945;46.010;8.946;2023-05-07T03:41:57;4.57;;;3.00;;
19595;SDS011;9945;46.010;8.946;2023-05-07T03:44:24;2.40;;;2.25;;
19595;SDS011;9945;46.010;8.946;2023-05-07T03:46:51;3.47;;;2.55;;
19595;SDS011;9945;46.010;8.946;2023-05-07T03:49:18;2.95;;;2.65;;
19595;SDS011;9945;46.010;8.946;2023-05-07T03:51:44;6.03;;;2.17;;
19595;SDS011;9945;46.010;8.946;2023-05-07T03:54:11;2.85;;;2.55;;
19595;SDS011;9945;46.010;8.946;2023-05-07T03:56:38;3.83;;;2.58;;
19595;SDS011;9945;46.010;8.946;2023-05-07T03:59:06;2.78;;;2.30;;
19595;SDS011;9945;46.010;8.946;2023-05-07T04:01:33;3.92;;;2.35;;
19595;SDS011;9945;46.010;8.946;2023-05-07T04:04:00;2.83;;;1.90;;
19595;SDS011;9945;46.010;8.946;2023-05-07T04:06:28;2.33;;;2.20;;
19595;SDS011;9945;46.010;8.946;2023-05-07T04:08:55;2.40;;;2.20;;
19595;SDS011;9945;46.010;8.946;2023-05-07T04:11:22;2.22;;;2.08;;
19595;SDS011;9945;46.010;8.946;2023-05-07T04:13:48;1.98;;;1.80;;
19595;SDS011;9945;46.010;8.946;2023-05-07T04:16:17;2.15;;;2.03;;
19595;SDS011;9945;46.010;8.946;2023-05-07T04:18:43;4.53;;;1.80;;
19595;SDS011;9945;46.010;8.946;2023-05-07T04:21:13;3.65;;;1.83;;
19595;SDS011;9945;46.010;8.946;2023-05-07T04:23:41;1.70;;;1.60;;
19595;SDS011;9945;46.010;8.946;2023-05-07T04:26:08;2.58;;;1.75;;
19595;SDS011;9945;46.010;8.946;2023-05-07T04:28:35;1.83;;;1.73;;
19595;SDS011;9945;46.010;8.946;2023-05-07T04:31:02;3.30;;;2.03;;
19595;SDS011;9945;46.010;8.946;2023-05-07T04:33:31;1.77;;;1.67;;
19595;SDS011;9945;46.010;8.946;2023-05-07T04:35:58;6.80;;;1.75;;
19595;SDS011;9945;46.010;8.946;2023-05-07T04:38:29;1.90;;;1.50;;
19595;SDS011;9945;46.010;8.946;2023-05-07T04:40:56;5.50;;;2.00;;
19595;SDS011;9945;46.010;8.946;2023-05-07T04:43:23;2.33;;;1.88;;
19595;SDS011;9945;46.010;8.946;2023-05-07T04:45:50;1.70;;;1.60;;
19595;SDS011;9945;46.010;8.946;2023-05-07T04:48:17;2.13;;;1.95;;
19595;SDS011;9945;46.010;8.946;2023-05-07T04:50:48;4.82;;;2.00;;
19595;SDS011;9945;46.010;8.946;2023-05-07T04:53:15;2.00;;;1.90;;
19595;SDS011;9945;46.010;8.946;2023-05-07T04:55:43;5.53;;;2.55;;
19595;SDS011;9945;46.010;8.946;2023-05-07T04:58:10;5.45;;;2.10;;
19595;SDS011;9945;46.010;8.946;2023-05-07T05:00:37;2.40;;;2.28;;
19595;SDS011;9945;46.010;8.946;2023-05-07T05:03:05;1.90;;;1.80;;
19595;SDS011;9945;46.010;8.946;2023-05-07T05:05:32;2.75;;;2.22;;
19595;SDS011;9945;46.010;8.946;2023-05-07T05:08:01;5.68;;;2.30;;
19595;SDS011;9945;46.010;8.946;2023-05-07T05:10:27;3.85;;;2.17;;
19595;SDS011;9945;46.010;8.946;2023-05-07T05:12:54;4.70;;;2.63;;
19595;SDS011;9945;46.010;8.946;2023-05-07T05:15:21;1.98;;;1.73;;
19595;SDS011;9945;46.010;8.946;2023-05-07T05:17:48;2.58;;;2.00;;
19595;SDS011;9945;46.010;8.946;2023-05-07T05:20:15;2.90;;;2.22;;
19595;SDS011;9945;46.010;8.946;2023-05-07T05:22:42;2.65;;;2.20;;
19595;SDS011;9945;46.010;8.946;2023-05-07T05:25:10;2.03;;;1.92;;
19595;SDS011;9945;46.010;8.946;2023-05-07T05:27:37;2.25;;;2.03;;
19595;SDS011;9945;46.010;8.946;2023-05-07T05:30:04;1.98;;;1.88;;
19595;SDS011;9945;46.010;8.946;2023-05-07T05:32:31;3.70;;;1.90;;
19595;SDS011;9945;46.010;8.946;2023-05-07T05:34:58;1.98;;;1.83;;
19595;SDS011;9945;46.010;8.946;2023-05-07T05:37:25;4.40;;;2.28;;
19595;SDS011;9945;46.010;8.946;2023-05-07T05:39:52;2.63;;;2.05;;
19595;SDS011;9945;46.010;8.946;2023-05-07T05:42:23;2.67;;;1.70;;
19595;SDS011;9945;46.010;8.946;2023-05-07T05:44:49;2.20;;;2.10;;
19595;SDS011;9945;46.010;8.946;2023-05-07T05:47:16;2.67;;;2.20;;
19595;SDS011;9945;46.010;8.946;2023-05-07T05:49:43;2.10;;;1.95;;
19595;SDS011;9945;46.010;8.946;2023-05-07T05:52:11;2.05;;;1.85;;
19595;SDS011;9945;46.010;8.946;2023-05-07T05:54:38;1.55;;;1.45;;
19595;SDS011;9945;46.010;8.946;2023-05-07T05:57:05;1.50;;;1.40;;
19595;SDS011;9945;46.010;8.946;2023-05-07T05:59:33;1.15;;;1.15;;
19595;SDS011;9945;46.010;8.946;2023-05-07T06:02:00;1.70;;;1.60;;
19595;SDS011;9945;46.010;8.946;2023-05-07T06:04:27;2.20;;;2.00;;
19595;SDS011;9945;46.010;8.946;2023-05-07T06:06:54;2.20;;;1.85;;
19595;SDS011;9945;46.010;8.946;2023-05-07T06:09:21;3.42;;;1.98;;
19595;SDS011;9945;46.010;8.946;2023-05-07T06:11:48;2.88;;;2.10;;
19595;SDS011;9945;46.010;8.946;2023-05-07T06:14:15;1.80;;;1.70;;
19595;SDS011;9945;46.010;8.946;2023-05-07T06:16:43;3.35;;;2.08;;
19595;SDS011;9945;46.010;8.946;2023-05-07T06:19:10;1.95;;;1.85;;
19595;SDS011;9945;46.010;8.946;2023-05-07T06:21:38;2.80;;;2.20;;
19595;SDS011;9945;46.010;8.946;2023-05-07T06:24:05;2.25;;;2.00;;
19595;SDS011;9945;46.010;8.946;2023-05-07T06:26:32;5.20;;;1.80;;
19595;SDS011;9945;46.010;8.946;2023-05-07T06:28:59;3.45;;;1.83;;
19595;SDS011;9945;46.010;8.946;2023-05-07T06:31:29;5.75;;;2.00;;
19595;SDS011;9945;46.010;8.946;2023-05-07T06:33:58;1.98;;;1.88;;
19595;SDS011;9945;46.010;8.946;2023-05-07T06:36:27;4.57;;;1.90;;
19595;SDS011;9945;46.010;8.946;2023-05-07T06:38:54;5.30;;;2.08;;
19595;SDS011;9945;46.010;8.946;2023-05-07T06:41:21;3.03;;;2.17;;
19595;SDS011;9945;46.010;8.946;2023-05-07T06:43:47;2.65;;;1.98;;
19595;SDS011;9945;46.010;8.946;2023-05-07T06:46:15;4.43;;;1.98;;
19595;SDS011;9945;46.010;8.946;2023-05-07T06:48:42;2.13;;;1.92;;
19595;SDS011;9945;46.010;8.946;2023-05-07T06:51:10;5.45;;;2.05;;
19595;SDS011;9945;46.010;8.946;2023-05-07T06:53:37;2.70;;;2.10;;
19595;SDS011;9945;46.010;8.946;2023-05-07T06:56:04;2.15;;;1.90;;
19595;SDS011;9945;46.010;8.946;2023-05-07T06:58:31;2.05;;;1.70;;
19595;SDS011;9945;46.010;8.946;2023-05-07T07:00:58;2.28;;;2.08;;
19595;SDS011;9945;46.010;8.946;2023-05-07T07:03:25;1.92;;;1.83;;
19595;SDS011;9945;46.010;8.946;2023-05-07T07:05:52;2.03;;;1.92;;
19595;SDS011;9945;46.010;8.946;2023-05-07T07:08:21;4.60;;;1.42;;
19595;SDS011;9945;46.010;8.946;2023-05-07T07:10:48;1.73;;;1.63;;
19595;SDS011;9945;46.010;8.946;2023-05-07T07:13:15;1.77;;;1.67;;
19595;SDS011;9945;46.010;8.946;2023-05-07T07:15:42;2.00;;;1.90;;
19595;SDS011;9945;46.010;8.946;2023-05-07T07:18:10;1.67;;;1.58;;
19595;SDS011;9945;46.010;8.946;2023-05-07T07:20:37;3.95;;;2.08;;
19595;SDS011;9945;46.010;8.946;2023-05-07T07:23:04;1.52;;;1.50;;
19595;SDS011;9945;46.010;8.946;2023-05-07T07:25:32;4.57;;;1.77;;
19595;SDS011;9945;46.010;8.946;2023-05-07T07:27:59;1.73;;;1.63;;
19595;SDS011;9945;46.010;8.946;2023-05-07T07:30:25;1.92;;;1.40;;
19595;SDS011;9945;46.010;8.946;2023-05-07T07:32:52;3.47;;;1.80;;
19595;SDS011;9945;46.010;8.946;2023-05-07T07:35:20;2.20;;;1.70;;
19595;SDS011;9945;46.010;8.946;2023-05-07T07:37:47;1.80;;;1.70;;
19595;SDS011;9945;46.010;8.946;2023-05-07T07:40:15;1.88;;;1.77;;
19595;SDS011;9945;46.010;8.946;2023-05-07T07:42:43;2.35;;;2.10;;
19595;SDS011;9945;46.010;8.946;2023-05-07T07:45:11;1.98;;;1.67;;
19595;SDS011;9945;46.010;8.946;2023-05-07T07:47:39;2.15;;;2.00;;
19595;SDS011;9945;46.010;8.946;2023-05-07T07:50:06;1.92;;;1.83;;
19595;SDS011;9945;46.010;8.946;2023-05-07T07:52:34;2.28;;;2.17;;
19595;SDS011;9945;46.010;8.946;2023-05-07T07:55:01;2.60;;;2.08;;
19595;SDS011;9945;46.010;8.946;2023-05-07T07:57:29;2.72;;;1.95;;
19595;SDS011;9945;46.010;8.946;2023-05-07T07:59:57;2.00;;;1.90;;
19595;SDS011;9945;46.010;8.946;2023-05-07T08:02:24;3.13;;;2.10;;
19595;SDS011;9945;46.010;8.946;2023-05-07T08:04:51;2.13;;;2.03;;
19595;SDS011;9945;46.010;8.946;2023-05-07T08:07:18;2.33;;;2.13;;
19595;SDS011;9945;46.010;8.946;2023-05-07T08:09:47;2.40;;;1.98;;
19595;SDS011;9945;46.010;8.946;2023-05-07T08:12:14;4.32;;;1.92;;
19595;SDS011;9945;46.010;8.946;2023-05-07T08:14:41;3.58;;;2.53;;
19595;SDS011;9945;46.010;8.946;2023-05-07T08:17:09;3.97;;;3.58;;
19595;SDS011;9945;46.010;8.946;2023-05-07T08:19:36;4.18;;;3.50;;
19595;SDS011;9945;46.010;8.946;2023-05-07T08:22:03;4.15;;;3.85;;
19595;SDS011;9945;46.010;8.946;2023-05-07T08:24:30;5.00;;;3.25;;
19595;SDS011;9945;46.010;8.946;2023-05-07T08:26:57;3.53;;;3.22;;
19595;SDS011;9945;46.010;8.946;2023-05-07T08:29:24;4.50;;;2.22;;
19595;SDS011;9945;46.010;8.946;2023-05-07T08:31:51;2.10;;;1.95;;
19595;SDS011;9945;46.010;8.946;2023-05-07T08:34:19;1.65;;;1.55;;
19595;SDS011;9945;46.010;8.946;2023-05-07T08:36:47;2.80;;;1.98;;
19595;SDS011;9945;46.010;8.946;2023-05-07T08:39:14;2.50;;;1.92;;
19595;SDS011;9945;46.010;8.946;2023-05-07T08:41:42;3.40;;;1.75;;
19595;SDS011;9945;46.010;8.946;2023-05-07T08:44:11;2.90;;;1.60;;
19595;SDS011;9945;46.010;8.946;2023-05-07T08:46:39;1.67;;;1.58;;
19595;SDS011;9945;46.010;8.946;2023-05-07T08:49:07;1.58;;;1.48;;
19595;SDS011;9945;46.010;8.946;2023-05-07T08:51:35;1.85;;;1.75;;
19595;SDS011;9945;46.010;8.946;2023-05-07T08:54:03;2.40;;;1.75;;
19595;SDS011;9945;46.010;8.946;2023-05-07T08:56:30;1.40;;;1.30;;
19595;SDS011;9945;46.010;8.946;2023-05-07T08:58:57;1.55;;;1.48;;
19595;SDS011;9945;46.010;8.946;2023-05-07T09:01:24;4.40;;;1.45;;
19595;SDS011;9945;46.010;8.946;2023-05-07T09:03:52;1.52;;;1.40;;
19595;SDS011;9945;46.010;8.946;2023-05-07T09:06:19;3.15;;;1.40;;
19595;SDS011;9945;46.010;8.946;2023-05-07T09:08:51;3.20;;;1.60;;
19595;SDS011;9945;46.010;8.946;2023-05-07T09:11:21;1.80;;;1.70;;
19595;SDS011;9945;46.010;8.946;2023-05-07T09:13:49;2.50;;;1.92;;
19595;SDS011;9945;46.010;8.946;2023-05-07T09:16:20;1.63;;;1.52;;
19595;SDS011;9945;46.010;8.946;2023-05-07T09:18:48;1.67;;;1.42;;
19595;SDS011;9945;46.010;8.946;2023-05-07T09:21:18;1.50;;;1.40;;
19595;SDS011;9945;46.010;8.946;2023-05-07T09:23:47;1.92;;;1.60;;
19595;SDS011;9945;46.010;8.946;2023-05-07T09:26:16;1.75;;;1.60;;
19595;SDS011;9945;46.010;8.946;2023-05-07T09:28:43;1.70;;;1.60;;
19595;SDS011;9945;46.010;8.946;2023-05-07T09:31:11;2.22;;;1.95;;
19595;SDS011;9945;46.010;8.946;2023-05-07T09:33:39;1.90;;;1.80;;
19595;SDS011;9945;46.010;8.946;2023-05-07T09:36:07;2.35;;;1.67;;
19595;SDS011;9945;46.010;8.946;2023-05-07T09:38:35;2.30;;;2.10;;
19595;SDS011;9945;46.010;8.946;2023-05-07T09:41:04;2.08;;;1.98;;
19595;SDS011;9945;46.010;8.946;2023-05-07T09:43:33;1.92;;;1.83;;
19595;SDS011;9945;46.010;8.946;2023-05-07T09:46:06;2.60;;;2.40;;
19595;SDS011;9945;46.010;8.946;2023-05-07T09:48:37;3.55;;;1.90;;
19595;SDS011;9945;46.010;8.946;2023-05-07T09:51:11;2.10;;;1.80;;
19595;SDS011;9945;46.010;8.946;2023-05-07T09:53:44;3.90;;;1.98;;
19595;SDS011;9945;46.010;8.946;2023-05-07T09:56:13;3.75;;;1.50;;
19595;SDS011;9945;46.010;8.946;2023-05-07T09:58:42;1.40;;;1.30;;
19595;SDS011;9945;46.010;8.946;2023-05-07T10:01:11;1.88;;;1.25;;
19595;SDS011;9945;46.010;8.946;2023-05-07T10:03:39;1.50;;;1.20;;
19595;SDS011;9945;46.010;8.946;2023-05-07T10:06:08;1.20;;;1.20;;
19595;SDS011;9945;46.010;8.946;2023-05-07T10:08:36;1.27;;;1.27;;
19595;SDS011;9945;46.010;8.946;2023-05-07T10:11:03;2.25;;;1.77;;
19595;SDS011;9945;46.010;8.946;2023-05-07T10:13:31;2.15;;;1.30;;
19595;SDS011;9945;46.010;8.946;2023-05-07T10:16:01;2.33;;;1.80;;
19595;SDS011;9945;46.010;8.946;2023-05-07T10:18:30;2.17;;;1.70;;
19595;SDS011;9945;46.010;8.946;2023-05-07T10:20:59;1.58;;;1.50;;
19595;SDS011;9945;46.010;8.946;2023-05-07T10:23:33;1.17;;;1.17;;
19595;SDS011;9945;46.010;8.946;2023-05-07T10:26:00;1.52;;;1.40;;
19595;SDS011;9945;46.010;8.946;2023-05-07T10:28:30;1.50;;;1.40;;
19595;SDS011;9945;46.010;8.946;2023-05-07T10:31:08;2.67;;;1.75;;
19595;SDS011;9945;46.010;8.946;2023-05-07T10:33:44;2.25;;;2.10;;
19595;SDS011;9945;46.010;8.946;2023-05-07T10:36:13;2.28;;;1.67;;
19595;SDS011;9945;46.010;8.946;2023-05-07T10:38:40;2.65;;;1.60;;
19595;SDS011;9945;46.010;8.946;2023-05-07T10:41:07;1.77;;;1.38;;
19595;SDS011;9945;46.010;8.946;2023-05-07T10:43:40;1.80;;;1.58;;
19595;SDS011;9945;46.010;8.946;2023-05-07T10:46:13;1.58;;;1.20;;
19595;SDS011;9945;46.010;8.946;2023-05-07T10:51:36;1.38;;;1.27;;
19595;SDS011;9945;46.010;8.946;2023-05-07T10:54:19;1.10;;;1.00;;
19595;SDS011;9945;46.010;8.946;2023-05-07T10:56:50;2.50;;;1.15;;
19595;SDS011;9945;46.010;8.946;2023-05-07T10:59:35;1.20;;;1.20;;
19595;SDS011;9945;46.010;8.946;2023-05-07T11:02:10;8.77;;;7.45;;
19595;SDS011;9945;46.010;8.946;2023-05-07T11:04:39;2.60;;;1.60;;
19595;SDS011;9945;46.010;8.946;2023-05-07T11:07:17;2.45;;;1.40;;
19595;SDS011;9945;46.010;8.946;2023-05-07T11:09:54;1.40;;;1.30;;
19595;SDS011;9945;46.010;8.946;2023-05-07T11:15:15;1.48;;;1.20;;
19595;SDS011;9945;46.010;8.946;2023-05-07T11:18:02;1.30;;;1.20;;
19595;SDS011;9945;46.010;8.946;2023-05-07T11:20:45;3.13;;;1.25;;
19595;SDS011;9945;46.010;8.946;2023-05-07T11:26:26;1.40;;;1.30;;
19595;SDS011;9945;46.010;8.946;2023-05-07T11:28:54;1.92;;;1.80;;
19595;SDS011;9945;46.010;8.946;2023-05-07T11:31:22;1.83;;;1.73;;
19595;SDS011;9945;46.010;8.946;2023-05-07T11:33:53;2.20;;;2.00;;
19595;SDS011;9945;46.010;8.946;2023-05-07T11:36:21;2.72;;;2.53;;
19595;SDS011;9945;46.010;8.946;2023-05-07T11:38:49;2.83;;;2.70;;
19595;SDS011;9945;46.010;8.946;2023-05-07T11:41:16;3.17;;;2.83;;
19595;SDS011;9945;46.010;8.946;2023-05-07T11:43:54;3.00;;;2.70;;
19595;SDS011;9945;46.010;8.946;2023-05-07T11:46:22;4.30;;;2.10;;
19595;SDS011;9945;46.010;8.946;2023-05-07T11:48:49;2.42;;;2.33;;
19595;SDS011;9945;46.010;8.946;2023-05-07T11:51:21;4.07;;;2.38;;
19595;SDS011;9945;46.010;8.946;2023-05-07T11:53:49;4.07;;;2.50;;
19595;SDS011;9945;46.010;8.946;2023-05-07T11:56:17;2.50;;;2.35;;
19595;SDS011;9945;46.010;8.946;2023-05-07T11:58:45;2.55;;;2.45;;
19595;SDS011;9945;46.010;8.946;2023-05-07T12:01:13;2.90;;;2.55;;
19595;SDS011;9945;46.010;8.946;2023-05-07T12:03:42;2.55;;;2.35;;
19595;SDS011;9945;46.010;8.946;2023-05-07T12:06:11;2.80;;;2.60;;
19595;SDS011;9945;46.010;8.946;2023-05-07T12:08:40;2.65;;;2.55;;
19595;SDS011;9945;46.010;8.946;2023-05-07T12:11:08;2.95;;;2.75;;
19595;SDS011;9945;46.010;8.946;2023-05-07T12:13:36;3.50;;;2.95;;
19595;SDS011;9945;46.010;8.946;2023-05-07T12:16:05;4.95;;;2.65;;
19595;SDS011;9945;46.010;8.946;2023-05-07T12:18:34;3.65;;;3.00;;
19595;SDS011;9945;46.010;8.946;2023-05-07T12:21:03;2.90;;;2.58;;
19595;SDS011;9945;46.010;8.946;2023-05-07T12:23:31;3.03;;;2.83;;
19595;SDS011;9945;46.010;8.946;2023-05-07T12:26:00;3.17;;;2.97;;
19595;SDS011;9945;46.010;8.946;2023-05-07T12:28:28;2.60;;;2.50;;
19595;SDS011;9945;46.010;8.946;2023-05-07T12:30:55;2.55;;;2.45;;
19595;SDS011;9945;46.010;8.946;2023-05-07T12:33:24;3.10;;;2.90;;
19595;SDS011;9945;46.010;8.946;2023-05-07T12:35:53;3.60;;;3.40;;
19595;SDS011;9945;46.010;8.946;2023-05-07T12:38:21;2.65;;;2.42;;
19595;SDS011;9945;46.010;8.946;2023-05-07T12:40:49;2.78;;;2.60;;
19595;SDS011;9945;46.010;8.946;2023-05-07T12:43:18;4.18;;;3.88;;
19595;SDS011;9945;46.010;8.946;2023-05-07T12:45:46;6.78;;;3.85;;
19595;SDS011;9945;46.010;8.946;2023-05-07T12:48:14;3.08;;;2.88;;
19595;SDS011;9945;46.010;8.946;2023-05-07T12:50:41;3.40;;;3.20;;
19595;SDS011;9945;46.010;8.946;2023-05-07T12:53:09;2.80;;;2.70;;
19595;SDS011;9945;46.010;8.946;2023-05-07T12:55:40;3.15;;;2.50;;
19595;SDS011;9945;46.010;8.946;2023-05-07T12:58:08;3.78;;;3.03;;
19595;SDS011;9945;46.010;8.946;2023-05-07T13:00:44;3.70;;;3.40;;
19595;SDS011;9945;46.010;8.946;2023-05-07T13:03:11;4.82;;;3.00;;
19595;SDS011;9945;46.010;8.946;2023-05-07T13:05:38;2.97;;;2.78;;
19595;SDS011;9945;46.010;8.946;2023-05-07T13:08:05;2.55;;;2.45;;
19595;SDS011;9945;46.010;8.946;2023-05-07T13:10:34;2.78;;;2.63;;
19595;SDS011;9945;46.010;8.946;2023-05-07T13:13:01;2.97;;;2.78;;
19595;SDS011;9945;46.010;8.946;2023-05-07T13:15:29;4.50;;;2.90;;
19595;SDS011;9945;46.010;8.946;2023-05-07T13:17:57;3.72;;;2.83;;
19595;SDS011;9945;46.010;8.946;2023-05-07T13:20:24;2.70;;;2.50;;
19595;SDS011;9945;46.010;8.946;2023-05-07T13:22:51;3.47;;;2.90;;
19595;SDS011;9945;46.010;8.946;2023-05-07T13:25:18;2.75;;;2.55;;
19595;SDS011;9945;46.010;8.946;2023-05-07T13:27:45;2.65;;;2.55;;
19595;SDS011;9945;46.010;8.946;2023-05-07T13:30:12;5.18;;;3.28;;
19595;SDS011;9945;46.010;8.946;2023-05-07T13:32:39;2.85;;;2.55;;
19595;SDS011;9945;46.010;8.946;2023-05-07T13:35:07;2.50;;;2.30;;
19595;SDS011;9945;46.010;8.946;2023-05-07T13:37:34;2.80;;;2.60;;
19595;SDS011;9945;46.010;8.946;2023-05-07T13:40:01;3.50;;;2.88;;
19595;SDS011;9945;46.010;8.946;2023-05-07T13:42:28;2.55;;;2.45;;
19595;SDS011;9945;46.010;8.946;2023-05-07T13:44:55;2.75;;;2.65;;
19595;SDS011;9945;46.010;8.946;2023-05-07T13:47:23;2.95;;;2.75;;
19595;SDS011;9945;46.010;8.946;2023-05-07T13:49:49;2.90;;;2.80;;
19595;SDS011;9945;46.010;8.946;2023-05-07T13:52:18;3.20;;;3.00;;
19595;SDS011;9945;46.010;8.946;2023-05-07T13:54:45;2.88;;;2.67;;
19595;SDS011;9945;46.010;8.946;2023-05-07T13:57:12;3.28;;;2.92;;
19595;SDS011;9945;46.010;8.946;2023-05-07T13:59:40;3.15;;;2.95;;
19595;SDS011;9945;46.010;8.946;2023-05-07T14:02:07;3.20;;;2.78;;
19595;SDS011;9945;46.010;8.946;2023-05-07T14:04:34;3.10;;;2.90;;
19595;SDS011;9945;46.010;8.946;2023-05-07T14:07:01;2.85;;;2.65;;
19595;SDS011;9945;46.010;8.946;2023-05-07T14:09:29;3.42;;;2.80;;
19595;SDS011;9945;46.010;8.946;2023-05-07T14:11:56;3.25;;;2.97;;
19595;SDS011;9945;46.010;8.946;2023-05-07T14:14:23;2.60;;;2.50;;
19595;SDS011;9945;46.010;8.946;2023-05-07T14:16:49;2.95;;;2.75;;
19595;SDS011;9945;46.010;8.946;2023-05-07T14:19:16;3.40;;;3.20;;
19595;SDS011;9945;46.010;8.946;2023-05-07T14:21:43;5.32;;;3.33;;
19595;SDS011;9945;46.010;8.946;2023-05-07T14:24:10;3.00;;;2.80;;
19595;SDS011;9945;46.010;8.946;2023-05-07T14:26:38;3.13;;;2.92;;
19595;SDS011;9945;46.010;8.946;2023-05-07T14:29:05;3.03;;;2.83;;
19595;SDS011;9945;46.010;8.946;2023-05-07T14:31:32;3.78;;;3.13;;
19595;SDS011;9945;46.010;8.946;2023-05-07T14:33:59;3.22;;;3.03;;
19595;SDS011;9945;46.010;8.946;2023-05-07T14:36:26;3.03;;;2.92;;
19595;SDS011;9945;46.010;8.946;2023-05-07T14:38:53;4.60;;;2.80;;
19595;SDS011;9945;46.010;8.946;2023-05-07T14:41:20;3.03;;;2.90;;
19595;SDS011;9945;46.010;8.946;2023-05-07T14:43:49;2.97;;;2.88;;
19595;SDS011;9945;46.010;8.946;2023-05-07T14:46:16;2.70;;;2.60;;
19595;SDS011;9945;46.010;8.946;2023-05-07T14:48:44;5.22;;;2.78;;
19595;SDS011;9945;46.010;8.946;2023-05-07T14:51:11;3.42;;;2.80;;
19595;SDS011;9945;46.010;8.946;2023-05-07T14:53:38;2.50;;;2.40;;
19595;SDS011;9945;46.010;8.946;2023-05-07T14:56:05;3.20;;;2.90;;
19595;SDS011;9945;46.010;8.946;2023-05-07T14:58:32;2.70;;;2.42;;
19595;SDS011;9945;46.010;8.946;2023-05-07T15:01:01;2.90;;;2.70;;
19595;SDS011;9945;46.010;8.946;2023-05-07T15:03:28;3.65;;;2.97;;
19595;SDS011;9945;46.010;8.946;2023-05-07T15:05:55;3.08;;;2.88;;
19595;SDS011;9945;46.010;8.946;2023-05-07T15:08:22;2.88;;;2.72;;
19595;SDS011;9945;46.010;8.946;2023-05-07T15:10:49;4.13;;;3.72;;
19595;SDS011;9945;46.010;8.946;2023-05-07T15:13:16;4.00;;;3.65;;